sensor_id;sensor_type;location;lat;lon;timestamp;P1;durP1;ratioP1;P2;durP2;ratioP2
4742;SDS011;24293;48.154;7.748;2023-04-24T00:01:29;2.60;;;1.00;;
4742;SDS011;24293;48.154;7.748;2023-04-24T00:03:56;2.80;;;1.07;;
4742;SDS011;24293;48.154;7.748;2023-04-24T00:06:24;3.10;;;1.13;;
4742;SDS011;24293;48.154;7.748;2023-04-24T00:08:58;2.10;;;1.00;;
4742;SDS011;24293;48.154;7.748;2023-04-24T00:11:24;3.00;;;1.30;;
4742;SDS011;24293;48.154;7.748;2023-04-24T00:13:52;1.50;;;1.00;;
4742;SDS011;24293;48.154;7.748;2023-04-24T00:16:19;2.17;;;1.10;;
4742;SDS011;24293;48.154;7.748;2023-04-24T00:18:45;2.03;;;1.10;;
4742;SDS011;24293;48.154;7.748;2023-04-24T00:21:12;2.50;;;1.03;;
4742;SDS011;24293;48.154;7.748;2023-04-24T00:23:40;4.50;;;1.07;;
4742;SDS011;24293;48.154;7.748;2023-04-24T00:26:06;3.00;;;1.23;;
4742;SDS011;24293;48.154;7.748;2023-04-24T00:28:33;3.60;;;1.40;;
4742;SDS011;24293;48.154;7.748;2023-04-24T00:31:00;2.80;;;1.03;;
4742;SDS011;24293;48.154;7.748;2023-04-24T00:33:28;2.60;;;1.00;;
4742;SDS011;24293;48.154;7.748;2023-04-24T00:35:54;1.63;;;1.00;;
4742;SDS011;24293;48.154;7.748;2023-04-24T00:38:20;3.77;;;1.10;;
4742;SDS011;24293;48.154;7.748;2023-04-24T00:40:47;4.30;;;1.10;;
4742;SDS011;24293;48.154;7.748;2023-04-24T00:43:15;2.67;;;1.00;;
4742;SDS011;24293;48.154;7.748;2023-04-24T00:45:41;3.30;;;0.90;;
4742;SDS011;24293;48.154;7.748;2023-04-24T00:48:09;4.33;;;1.00;;
4742;SDS011;24293;48.154;7.748;2023-04-24T00:50:37;2.00;;;1.07;;
4742;SDS011;24293;48.154;7.748;2023-04-24T00:53:04;1.70;;;1.00;;
4742;SDS011;24293;48.154;7.748;2023-04-24T00:55:31;1.97;;;1.00;;
4742;SDS011;24293;48.154;7.748;2023-04-24T00:57:58;3.50;;;1.10;;
4742;SDS011;24293;48.154;7.748;2023-04-24T01:00:24;2.33;;;1.00;;
4742;SDS011;24293;48.154;7.748;2023-04-24T01:02:51;3.30;;;1.13;;
4742;SDS011;24293;48.154;7.748;2023-04-24T01:05:24;5.20;;;0.90;;
4742;SDS011;24293;48.154;7.748;2023-04-24T01:07:52;3.57;;;1.10;;
4742;SDS011;24293;48.154;7.748;2023-04-24T01:10:21;3.00;;;1.10;;
4742;SDS011;24293;48.154;7.748;2023-04-24T01:12:48;2.77;;;1.10;;
4742;SDS011;24293;48.154;7.748;2023-04-24T01:15:15;2.27;;;1.10;;
4742;SDS011;24293;48.154;7.748;2023-04-24T01:17:41;2.20;;;1.10;;
4742;SDS011;24293;48.154;7.748;2023-04-24T01:20:08;3.60;;;1.10;;
4742;SDS011;24293;48.154;7.748;2023-04-24T01:22:36;3.00;;;1.20;;
4742;SDS011;24293;48.154;7.748;2023-04-24T01:25:03;2.33;;;1.30;;
4742;SDS011;24293;48.154;7.748;2023-04-24T01:27:30;1.73;;;1.00;;
4742;SDS011;24293;48.154;7.748;2023-04-24T01:29:56;3.00;;;1.17;;
4742;SDS011;24293;48.154;7.748;2023-04-24T01:32:23;2.07;;;1.00;;
4742;SDS011;24293;48.154;7.748;2023-04-24T01:34:50;12.20;;;1.00;;
4742;SDS011;24293;48.154;7.748;2023-04-24T01:37:16;2.40;;;1.40;;
4742;SDS011;24293;48.154;7.748;2023-04-24T01:39:44;1.70;;;0.90;;
4742;SDS011;24293;48.154;7.748;2023-04-24T01:42:11;1.53;;;0.93;;
4742;SDS011;24293;48.154;7.748;2023-04-24T01:44:38;2.37;;;1.10;;
4742;SDS011;24293;48.154;7.748;2023-04-24T01:47:04;2.70;;;1.10;;
4742;SDS011;24293;48.154;7.748;2023-04-24T01:49:31;2.60;;;1.20;;
4742;SDS011;24293;48.154;7.748;2023-04-24T01:51:58;3.10;;;1.10;;
4742;SDS011;24293;48.154;7.748;2023-04-24T01:54:25;2.43;;;1.03;;
4742;SDS011;24293;48.154;7.748;2023-04-24T01:56:53;2.00;;;1.00;;
4742;SDS011;24293;48.154;7.748;2023-04-24T01:59:19;2.20;;;1.47;;
4742;SDS011;24293;48.154;7.748;2023-04-24T02:01:46;3.27;;;1.20;;
4742;SDS011;24293;48.154;7.748;2023-04-24T02:04:13;4.00;;;1.17;;
4742;SDS011;24293;48.154;7.748;2023-04-24T02:06:40;4.33;;;1.10;;
4742;SDS011;24293;48.154;7.748;2023-04-24T02:09:07;3.00;;;1.40;;
4742;SDS011;24293;48.154;7.748;2023-04-24T02:11:34;4.47;;;1.10;;
4742;SDS011;24293;48.154;7.748;2023-04-24T02:14:01;5.40;;;1.30;;
4742;SDS011;24293;48.154;7.748;2023-04-24T02:16:28;2.07;;;0.87;;
4742;SDS011;24293;48.154;7.748;2023-04-24T02:18:58;3.00;;;1.00;;
4742;SDS011;24293;48.154;7.748;2023-04-24T02:21:24;3.97;;;1.20;;
4742;SDS011;24293;48.154;7.748;2023-04-24T02:23:50;4.40;;;1.03;;
4742;SDS011;24293;48.154;7.748;2023-04-24T02:26:17;2.70;;;1.33;;
4742;SDS011;24293;48.154;7.748;2023-04-24T02:28:43;3.57;;;1.10;;
4742;SDS011;24293;48.154;7.748;2023-04-24T02:31:11;2.70;;;1.20;;
4742;SDS011;24293;48.154;7.748;2023-04-24T02:33:38;1.83;;;0.93;;
4742;SDS011;24293;48.154;7.748;2023-04-24T02:36:04;2.30;;;1.20;;
4742;SDS011;24293;48.154;7.748;2023-04-24T02:38:31;5.37;;;1.20;;
4742;SDS011;24293;48.154;7.748;2023-04-24T02:40:57;3.30;;;1.10;;
4742;SDS011;24293;48.154;7.748;2023-04-24T02:43:24;1.80;;;1.10;;
4742;SDS011;24293;48.154;7.748;2023-04-24T02:45:50;2.50;;;1.10;;
4742;SDS011;24293;48.154;7.748;2023-04-24T02:48:18;5.40;;;1.13;;
4742;SDS011;24293;48.154;7.748;2023-04-24T02:50:45;4.60;;;1.33;;
4742;SDS011;24293;48.154;7.748;2023-04-24T02:53:12;15.63;;;1.40;;
4742;SDS011;24293;48.154;7.748;2023-04-24T02:55:39;4.13;;;1.10;;
4742;SDS011;24293;48.154;7.748;2023-04-24T02:58:05;3.50;;;1.03;;
4742;SDS011;24293;48.154;7.748;2023-04-24T03:00:32;6.37;;;2.50;;
4742;SDS011;24293;48.154;7.748;2023-04-24T03:02:58;6.03;;;1.33;;
4742;SDS011;24293;48.154;7.748;2023-04-24T03:05:26;2.30;;;1.03;;
4742;SDS011;24293;48.154;7.748;2023-04-24T03:07:53;6.03;;;1.20;;
4742;SDS011;24293;48.154;7.748;2023-04-24T03:10:19;6.83;;;1.40;;
4742;SDS011;24293;48.154;7.748;2023-04-24T03:12:47;3.50;;;1.40;;
4742;SDS011;24293;48.154;7.748;2023-04-24T03:15:14;3.77;;;1.20;;
4742;SDS011;24293;48.154;7.748;2023-04-24T03:17:40;3.30;;;1.30;;
4742;SDS011;24293;48.154;7.748;2023-04-24T03:20:07;2.53;;;1.50;;
4742;SDS011;24293;48.154;7.748;2023-04-24T03:22:35;5.33;;;1.30;;
4742;SDS011;24293;48.154;7.748;2023-04-24T03:25:02;3.63;;;1.20;;
4742;SDS011;24293;48.154;7.748;2023-04-24T03:27:29;4.57;;;1.20;;
4742;SDS011;24293;48.154;7.748;2023-04-24T03:29:55;2.30;;;1.20;;
4742;SDS011;24293;48.154;7.748;2023-04-24T03:32:22;2.90;;;1.30;;
4742;SDS011;24293;48.154;7.748;2023-04-24T03:34:48;4.20;;;1.40;;
4742;SDS011;24293;48.154;7.748;2023-04-24T03:37:15;2.43;;;1.20;;
4742;SDS011;24293;48.154;7.748;2023-04-24T03:39:43;2.90;;;1.10;;
4742;SDS011;24293;48.154;7.748;2023-04-24T03:42:13;4.10;;;1.30;;
4742;SDS011;24293;48.154;7.748;2023-04-24T03:44:39;3.80;;;1.10;;
4742;SDS011;24293;48.154;7.748;2023-04-24T03:47:06;3.13;;;1.03;;
4742;SDS011;24293;48.154;7.748;2023-04-24T03:49:32;4.80;;;1.10;;
4742;SDS011;24293;48.154;7.748;2023-04-24T03:51:59;3.23;;;1.10;;
4742;SDS011;24293;48.154;7.748;2023-04-24T03:54:25;4.50;;;1.07;;
4742;SDS011;24293;48.154;7.748;2023-04-24T03:56:53;3.20;;;1.10;;
4742;SDS011;24293;48.154;7.748;2023-04-24T03:59:19;4.50;;;1.20;;
4742;SDS011;24293;48.154;7.748;2023-04-24T04:01:46;2.20;;;1.10;;
4742;SDS011;24293;48.154;7.748;2023-04-24T04:04:12;3.93;;;1.20;;
4742;SDS011;24293;48.154;7.748;2023-04-24T04:06:39;5.27;;;1.30;;
4742;SDS011;24293;48.154;7.748;2023-04-24T04:09:05;2.70;;;1.43;;
4742;SDS011;24293;48.154;7.748;2023-04-24T04:11:32;2.77;;;1.30;;
4742;SDS011;24293;48.154;7.748;2023-04-24T04:14:00;4.97;;;1.37;;
4742;SDS011;24293;48.154;7.748;2023-04-24T04:16:26;6.23;;;1.47;;
4742;SDS011;24293;48.154;7.748;2023-04-24T04:18:53;4.30;;;1.60;;
4742;SDS011;24293;48.154;7.748;2023-04-24T04:21:20;5.70;;;2.10;;
4742;SDS011;24293;48.154;7.748;2023-04-24T04:23:46;3.90;;;1.50;;
4742;SDS011;24293;48.154;7.748;2023-04-24T04:26:13;6.60;;;1.50;;
4742;SDS011;24293;48.154;7.748;2023-04-24T04:28:39;3.37;;;1.50;;
4742;SDS011;24293;48.154;7.748;2023-04-24T04:31:08;6.40;;;1.80;;
4742;SDS011;24293;48.154;7.748;2023-04-24T04:33:34;3.90;;;1.70;;
4742;SDS011;24293;48.154;7.748;2023-04-24T04:36:01;4.50;;;1.90;;
4742;SDS011;24293;48.154;7.748;2023-04-24T04:38:28;5.80;;;1.90;;
4742;SDS011;24293;48.154;7.748;2023-04-24T04:40:55;3.13;;;1.93;;
4742;SDS011;24293;48.154;7.748;2023-04-24T04:43:22;5.07;;;1.80;;
4742;SDS011;24293;48.154;7.748;2023-04-24T04:45:49;7.43;;;2.20;;
4742;SDS011;24293;48.154;7.748;2023-04-24T04:48:17;8.07;;;2.20;;
4742;SDS011;24293;48.154;7.748;2023-04-24T04:50:44;6.57;;;2.33;;
4742;SDS011;24293;48.154;7.748;2023-04-24T04:53:10;4.77;;;1.90;;
4742;SDS011;24293;48.154;7.748;2023-04-24T04:55:37;4.33;;;2.13;;
4742;SDS011;24293;48.154;7.748;2023-04-24T04:58:03;2.83;;;1.83;;
4742;SDS011;24293;48.154;7.748;2023-04-24T05:00:30;2.70;;;1.90;;
4742;SDS011;24293;48.154;7.748;2023-04-24T05:03:00;4.13;;;2.57;;
4742;SDS011;24293;48.154;7.748;2023-04-24T05:05:28;4.77;;;2.03;;
4742;SDS011;24293;48.154;7.748;2023-04-24T05:07:55;5.10;;;2.60;;
4742;SDS011;24293;48.154;7.748;2023-04-24T05:10:21;6.90;;;2.40;;
4742;SDS011;24293;48.154;7.748;2023-04-24T05:12:48;5.23;;;2.40;;
4742;SDS011;24293;48.154;7.748;2023-04-24T05:15:14;7.23;;;2.50;;
4742;SDS011;24293;48.154;7.748;2023-04-24T05:17:41;7.33;;;2.33;;
4742;SDS011;24293;48.154;7.748;2023-04-24T05:20:07;10.00;;;2.40;;
4742;SDS011;24293;48.154;7.748;2023-04-24T05:22:36;5.07;;;2.30;;
4742;SDS011;24293;48.154;7.748;2023-04-24T05:25:02;5.73;;;2.20;;
4742;SDS011;24293;48.154;7.748;2023-04-24T05:27:29;9.73;;;2.10;;
4742;SDS011;24293;48.154;7.748;2023-04-24T05:29:55;6.03;;;2.43;;
4742;SDS011;24293;48.154;7.748;2023-04-24T05:32:22;7.20;;;2.97;;
4742;SDS011;24293;48.154;7.748;2023-04-24T05:34:48;8.77;;;2.30;;
4742;SDS011;24293;48.154;7.748;2023-04-24T05:37:15;6.67;;;2.50;;
4742;SDS011;24293;48.154;7.748;2023-04-24T05:39:43;6.10;;;2.37;;
4742;SDS011;24293;48.154;7.748;2023-04-24T05:42:09;5.70;;;3.03;;
4742;SDS011;24293;48.154;7.748;2023-04-24T05:44:35;4.97;;;2.70;;
4742;SDS011;24293;48.154;7.748;2023-04-24T05:47:02;5.70;;;2.83;;
4742;SDS011;24293;48.154;7.748;2023-04-24T05:49:28;5.70;;;2.83;;
4742;SDS011;24293;48.154;7.748;2023-04-24T05:51:55;7.40;;;2.87;;
4742;SDS011;24293;48.154;7.748;2023-04-24T05:54:21;4.67;;;2.70;;
4742;SDS011;24293;48.154;7.748;2023-04-24T05:56:50;5.20;;;2.97;;
4742;SDS011;24293;48.154;7.748;2023-04-24T05:59:16;5.63;;;3.13;;
4742;SDS011;24293;48.154;7.748;2023-04-24T06:01:44;5.97;;;3.03;;
4742;SDS011;24293;48.154;7.748;2023-04-24T06:04:10;6.13;;;3.50;;
4742;SDS011;24293;48.154;7.748;2023-04-24T06:06:38;5.30;;;3.30;;
4742;SDS011;24293;48.154;7.748;2023-04-24T06:09:05;6.87;;;3.30;;
4742;SDS011;24293;48.154;7.748;2023-04-24T06:11:32;6.03;;;3.10;;
4742;SDS011;24293;48.154;7.748;2023-04-24T06:14:00;5.40;;;3.37;;
4742;SDS011;24293;48.154;7.748;2023-04-24T06:16:26;5.30;;;2.83;;
4742;SDS011;24293;48.154;7.748;2023-04-24T06:18:53;7.30;;;3.40;;
4742;SDS011;24293;48.154;7.748;2023-04-24T06:21:20;12.13;;;3.63;;
4742;SDS011;24293;48.154;7.748;2023-04-24T06:23:46;7.63;;;3.43;;
4742;SDS011;24293;48.154;7.748;2023-04-24T06:26:13;4.43;;;2.80;;
4742;SDS011;24293;48.154;7.748;2023-04-24T06:28:39;4.23;;;2.63;;
4742;SDS011;24293;48.154;7.748;2023-04-24T06:31:07;6.93;;;3.13;;
4742;SDS011;24293;48.154;7.748;2023-04-24T06:33:34;11.60;;;3.43;;
4742;SDS011;24293;48.154;7.748;2023-04-24T06:36:00;4.83;;;2.73;;
4742;SDS011;24293;48.154;7.748;2023-04-24T06:38:26;8.70;;;2.93;;
4742;SDS011;24293;48.154;7.748;2023-04-24T06:40:54;8.30;;;3.30;;
4742;SDS011;24293;48.154;7.748;2023-04-24T06:43:21;5.33;;;2.70;;
4742;SDS011;24293;48.154;7.748;2023-04-24T06:45:47;8.23;;;3.13;;
4742;SDS011;24293;48.154;7.748;2023-04-24T06:48:15;4.67;;;2.57;;
4742;SDS011;24293;48.154;7.748;2023-04-24T06:50:42;4.50;;;2.90;;
4742;SDS011;24293;48.154;7.748;2023-04-24T06:53:08;5.10;;;2.77;;
4742;SDS011;24293;48.154;7.748;2023-04-24T06:55:37;9.30;;;3.00;;
4742;SDS011;24293;48.154;7.748;2023-04-24T06:58:04;6.63;;;3.07;;
4742;SDS011;24293;48.154;7.748;2023-04-24T07:00:31;6.50;;;2.83;;
4742;SDS011;24293;48.154;7.748;2023-04-24T07:02:57;4.03;;;3.07;;
4742;SDS011;24293;48.154;7.748;2023-04-24T07:05:25;5.97;;;3.50;;
4742;SDS011;24293;48.154;7.748;2023-04-24T07:07:53;4.63;;;3.00;;
4742;SDS011;24293;48.154;7.748;2023-04-24T07:10:19;7.27;;;2.70;;
4742;SDS011;24293;48.154;7.748;2023-04-24T07:12:46;6.50;;;2.70;;
4742;SDS011;24293;48.154;7.748;2023-04-24T07:15:12;7.80;;;2.87;;
4742;SDS011;24293;48.154;7.748;2023-04-24T07:17:39;8.70;;;2.73;;
4742;SDS011;24293;48.154;7.748;2023-04-24T07:20:08;8.43;;;3.40;;
4742;SDS011;24293;48.154;7.748;2023-04-24T07:22:37;4.57;;;2.50;;
4742;SDS011;24293;48.154;7.748;2023-04-24T07:25:03;5.77;;;2.33;;
4742;SDS011;24293;48.154;7.748;2023-04-24T07:27:30;3.73;;;2.17;;
4742;SDS011;24293;48.154;7.748;2023-04-24T07:29:56;4.97;;;2.20;;
4742;SDS011;24293;48.154;7.748;2023-04-24T07:32:23;4.10;;;2.40;;
4742;SDS011;24293;48.154;7.748;2023-04-24T07:34:49;3.40;;;1.90;;
4742;SDS011;24293;48.154;7.748;2023-04-24T07:37:16;4.10;;;2.20;;
4742;SDS011;24293;48.154;7.748;2023-04-24T07:39:44;3.90;;;2.13;;
4742;SDS011;24293;48.154;7.748;2023-04-24T07:42:10;5.80;;;2.33;;
4742;SDS011;24293;48.154;7.748;2023-04-24T07:44:37;3.07;;;2.20;;
4742;SDS011;24293;48.154;7.748;2023-04-24T07:47:04;6.07;;;2.50;;
4742;SDS011;24293;48.154;7.748;2023-04-24T07:49:30;4.10;;;1.90;;
4742;SDS011;24293;48.154;7.748;2023-04-24T07:51:56;8.30;;;2.20;;
4742;SDS011;24293;48.154;7.748;2023-04-24T07:54:25;7.43;;;2.23;;
4742;SDS011;24293;48.154;7.748;2023-04-24T07:56:53;7.67;;;2.70;;
4742;SDS011;24293;48.154;7.748;2023-04-24T07:59:19;4.30;;;2.10;;
4742;SDS011;24293;48.154;7.748;2023-04-24T08:01:46;4.73;;;1.90;;
4742;SDS011;24293;48.154;7.748;2023-04-24T08:04:12;3.57;;;1.93;;
4742;SDS011;24293;48.154;7.748;2023-04-24T08:06:39;4.63;;;2.37;;
4742;SDS011;24293;48.154;7.748;2023-04-24T08:09:05;6.20;;;2.23;;
4742;SDS011;24293;48.154;7.748;2023-04-24T08:11:32;4.30;;;2.10;;
4742;SDS011;24293;48.154;7.748;2023-04-24T08:14:00;4.90;;;2.03;;
4742;SDS011;24293;48.154;7.748;2023-04-24T08:16:26;2.57;;;1.60;;
4742;SDS011;24293;48.154;7.748;2023-04-24T08:18:52;3.60;;;1.90;;
4742;SDS011;24293;48.154;7.748;2023-04-24T08:21:19;4.60;;;1.90;;
4742;SDS011;24293;48.154;7.748;2023-04-24T08:23:46;4.10;;;2.13;;
4742;SDS011;24293;48.154;7.748;2023-04-24T08:26:13;4.23;;;1.93;;
4742;SDS011;24293;48.154;7.748;2023-04-24T08:28:40;4.30;;;1.80;;
4742;SDS011;24293;48.154;7.748;2023-04-24T08:31:08;4.70;;;1.97;;
4742;SDS011;24293;48.154;7.748;2023-04-24T08:33:34;3.67;;;1.90;;
4742;SDS011;24293;48.154;7.748;2023-04-24T08:36:01;6.40;;;1.93;;
4742;SDS011;24293;48.154;7.748;2023-04-24T08:38:28;3.17;;;1.50;;
4742;SDS011;24293;48.154;7.748;2023-04-24T08:40:55;2.40;;;1.77;;
4742;SDS011;24293;48.154;7.748;2023-04-24T08:43:22;5.10;;;2.13;;
4742;SDS011;24293;48.154;7.748;2023-04-24T08:45:49;5.37;;;1.93;;
4742;SDS011;24293;48.154;7.748;2023-04-24T08:48:17;4.60;;;2.10;;
4742;SDS011;24293;48.154;7.748;2023-04-24T08:50:44;6.50;;;2.20;;
4742;SDS011;24293;48.154;7.748;2023-04-24T08:53:11;4.73;;;1.60;;
4742;SDS011;24293;48.154;7.748;2023-04-24T08:55:37;3.70;;;1.67;;
4742;SDS011;24293;48.154;7.748;2023-04-24T08:58:04;4.90;;;1.53;;
4742;SDS011;24293;48.154;7.748;2023-04-24T09:00:31;5.93;;;2.10;;
4742;SDS011;24293;48.154;7.748;2023-04-24T09:02:57;5.43;;;1.90;;
4742;SDS011;24293;48.154;7.748;2023-04-24T09:05:26;7.40;;;2.00;;
4742;SDS011;24293;48.154;7.748;2023-04-24T09:07:54;3.17;;;1.63;;
4742;SDS011;24293;48.154;7.748;2023-04-24T09:10:20;7.13;;;2.13;;
4742;SDS011;24293;48.154;7.748;2023-04-24T09:12:47;3.27;;;2.00;;
4742;SDS011;24293;48.154;7.748;2023-04-24T09:15:14;3.60;;;1.57;;
4742;SDS011;24293;48.154;7.748;2023-04-24T09:17:40;5.20;;;1.67;;
4742;SDS011;24293;48.154;7.748;2023-04-24T09:20:07;3.77;;;1.80;;
4742;SDS011;24293;48.154;7.748;2023-04-24T09:22:36;9.03;;;3.03;;
4742;SDS011;24293;48.154;7.748;2023-04-24T09:25:02;11.23;;;2.50;;
4742;SDS011;24293;48.154;7.748;2023-04-24T09:27:30;7.80;;;3.80;;
4742;SDS011;24293;48.154;7.748;2023-04-24T09:29:57;9.00;;;4.57;;
4742;SDS011;24293;48.154;7.748;2023-04-24T09:32:24;11.70;;;2.33;;
4742;SDS011;24293;48.154;7.748;2023-04-24T09:35:04;7.40;;;1.70;;
4742;SDS011;24293;48.154;7.748;2023-04-24T09:37:34;5.53;;;1.67;;
4742;SDS011;24293;48.154;7.748;2023-04-24T09:40:08;4.63;;;2.27;;
4742;SDS011;24293;48.154;7.748;2023-04-24T09:42:35;10.70;;;2.30;;
4742;SDS011;24293;48.154;7.748;2023-04-24T09:45:01;6.50;;;1.73;;
4742;SDS011;24293;48.154;7.748;2023-04-24T09:47:29;5.77;;;1.73;;
4742;SDS011;24293;48.154;7.748;2023-04-24T09:50:08;2.83;;;1.40;;
4742;SDS011;24293;48.154;7.748;2023-04-24T09:52:34;2.07;;;1.10;;
4742;SDS011;24293;48.154;7.748;2023-04-24T09:55:01;2.90;;;1.10;;
4742;SDS011;24293;48.154;7.748;2023-04-24T09:57:29;3.87;;;1.30;;
4742;SDS011;24293;48.154;7.748;2023-04-24T09:59:56;1.73;;;1.10;;
4742;SDS011;24293;48.154;7.748;2023-04-24T10:02:23;3.60;;;1.13;;
4742;SDS011;24293;48.154;7.748;2023-04-24T10:04:54;2.67;;;1.20;;
4742;SDS011;24293;48.154;7.748;2023-04-24T10:07:21;6.33;;;2.30;;
4742;SDS011;24293;48.154;7.748;2023-04-24T10:09:47;5.70;;;1.30;;
4742;SDS011;24293;48.154;7.748;2023-04-24T10:12:14;3.47;;;1.90;;
4742;SDS011;24293;48.154;7.748;2023-04-24T10:14:42;2.00;;;1.10;;
4742;SDS011;24293;48.154;7.748;2023-04-24T10:17:10;3.63;;;1.30;;
4742;SDS011;24293;48.154;7.748;2023-04-24T10:19:37;3.00;;;1.23;;
4742;SDS011;24293;48.154;7.748;2023-04-24T10:22:04;2.60;;;1.43;;
4742;SDS011;24293;48.154;7.748;2023-04-24T10:24:31;3.47;;;1.60;;
4742;SDS011;24293;48.154;7.748;2023-04-24T10:27:00;3.40;;;1.33;;
4742;SDS011;24293;48.154;7.748;2023-04-24T10:29:27;6.57;;;1.50;;
4742;SDS011;24293;48.154;7.748;2023-04-24T10:31:57;5.03;;;1.53;;
4742;SDS011;24293;48.154;7.748;2023-04-24T10:34:23;1.90;;;1.20;;
4742;SDS011;24293;48.154;7.748;2023-04-24T10:36:50;2.80;;;1.60;;
4742;SDS011;24293;48.154;7.748;2023-04-24T10:39:17;4.80;;;1.50;;
4742;SDS011;24293;48.154;7.748;2023-04-24T10:41:44;5.10;;;1.50;;
4742;SDS011;24293;48.154;7.748;2023-04-24T10:44:12;3.70;;;1.30;;
4742;SDS011;24293;48.154;7.748;2023-04-24T10:46:44;2.53;;;1.40;;
4742;SDS011;24293;48.154;7.748;2023-04-24T10:49:12;2.03;;;1.10;;
4742;SDS011;24293;48.154;7.748;2023-04-24T10:51:46;6.60;;;1.30;;
4742;SDS011;24293;48.154;7.748;2023-04-24T10:54:25;3.10;;;1.63;;
4742;SDS011;24293;48.154;7.748;2023-04-24T10:56:52;4.73;;;1.70;;
4742;SDS011;24293;48.154;7.748;2023-04-24T10:59:25;2.63;;;1.30;;
4742;SDS011;24293;48.154;7.748;2023-04-24T11:01:54;2.80;;;1.53;;
4742;SDS011;24293;48.154;7.748;2023-04-24T11:04:32;5.67;;;1.60;;
4742;SDS011;24293;48.154;7.748;2023-04-24T11:07:00;3.17;;;1.30;;
4742;SDS011;24293;48.154;7.748;2023-04-24T11:09:27;4.73;;;1.90;;
4742;SDS011;24293;48.154;7.748;2023-04-24T11:12:02;3.23;;;1.63;;
4742;SDS011;24293;48.154;7.748;2023-04-24T11:14:30;3.43;;;2.03;;
4742;SDS011;24293;48.154;7.748;2023-04-24T11:16:56;7.03;;;1.90;;
4742;SDS011;24293;48.154;7.748;2023-04-24T11:19:23;2.17;;;1.30;;
4742;SDS011;24293;48.154;7.748;2023-04-24T11:21:55;2.47;;;1.37;;
4742;SDS011;24293;48.154;7.748;2023-04-24T11:24:29;3.20;;;1.30;;
4742;SDS011;24293;48.154;7.748;2023-04-24T11:26:56;3.43;;;1.97;;
4742;SDS011;24293;48.154;7.748;2023-04-24T11:29:24;2.60;;;1.30;;
4742;SDS011;24293;48.154;7.748;2023-04-24T11:32:14;4.10;;;1.60;;
4742;SDS011;24293;48.154;7.748;2023-04-24T11:34:41;2.17;;;1.47;;
4742;SDS011;24293;48.154;7.748;2023-04-24T11:37:09;6.00;;;2.00;;
4742;SDS011;24293;48.154;7.748;2023-04-24T11:39:36;2.77;;;1.53;;
4742;SDS011;24293;48.154;7.748;2023-04-24T11:42:02;2.60;;;1.60;;
4742;SDS011;24293;48.154;7.748;2023-04-24T11:44:31;4.17;;;1.73;;
4742;SDS011;24293;48.154;7.748;2023-04-24T11:46:58;6.80;;;1.60;;
4742;SDS011;24293;48.154;7.748;2023-04-24T11:49:24;3.73;;;1.67;;
4742;SDS011;24293;48.154;7.748;2023-04-24T11:51:54;2.73;;;1.40;;
4742;SDS011;24293;48.154;7.748;2023-04-24T11:54:22;2.50;;;1.30;;
4742;SDS011;24293;48.154;7.748;2023-04-24T11:56:49;5.47;;;1.70;;
4742;SDS011;24293;48.154;7.748;2023-04-24T11:59:15;5.47;;;1.73;;
4742;SDS011;24293;48.154;7.748;2023-04-24T12:01:42;5.50;;;1.53;;
4742;SDS011;24293;48.154;7.748;2023-04-24T12:04:09;3.30;;;1.60;;
4742;SDS011;24293;48.154;7.748;2023-04-24T12:06:36;3.70;;;1.50;;
4742;SDS011;24293;48.154;7.748;2023-04-24T12:09:02;6.83;;;1.87;;
4742;SDS011;24293;48.154;7.748;2023-04-24T12:11:30;4.43;;;1.70;;
4742;SDS011;24293;48.154;7.748;2023-04-24T12:13:57;2.87;;;1.53;;
4742;SDS011;24293;48.154;7.748;2023-04-24T12:16:23;1.83;;;1.20;;
4742;SDS011;24293;48.154;7.748;2023-04-24T12:18:50;3.70;;;1.27;;
4742;SDS011;24293;48.154;7.748;2023-04-24T12:21:18;2.30;;;1.10;;
4742;SDS011;24293;48.154;7.748;2023-04-24T12:23:44;5.27;;;1.57;;
4742;SDS011;24293;48.154;7.748;2023-04-24T12:26:11;6.63;;;1.50;;
4742;SDS011;24293;48.154;7.748;2023-04-24T12:28:39;6.53;;;1.60;;
4742;SDS011;24293;48.154;7.748;2023-04-24T12:31:06;3.70;;;1.27;;
4742;SDS011;24293;48.154;7.748;2023-04-24T12:33:33;4.93;;;1.50;;
4742;SDS011;24293;48.154;7.748;2023-04-24T12:35:59;4.50;;;1.73;;
4742;SDS011;24293;48.154;7.748;2023-04-24T12:38:26;7.83;;;2.53;;
4742;SDS011;24293;48.154;7.748;2023-04-24T12:41:03;4.60;;;1.60;;
4742;SDS011;24293;48.154;7.748;2023-04-24T12:43:30;3.93;;;1.70;;
4742;SDS011;24293;48.154;7.748;2023-04-24T12:45:58;6.43;;;1.97;;
4742;SDS011;24293;48.154;7.748;2023-04-24T12:48:26;3.20;;;1.60;;
4742;SDS011;24293;48.154;7.748;2023-04-24T12:50:52;6.40;;;2.30;;
4742;SDS011;24293;48.154;7.748;2023-04-24T12:53:20;8.20;;;1.80;;
4742;SDS011;24293;48.154;7.748;2023-04-24T12:55:46;7.03;;;2.77;;
4742;SDS011;24293;48.154;7.748;2023-04-24T12:58:17;7.63;;;1.90;;
4742;SDS011;24293;48.154;7.748;2023-04-24T13:00:44;4.90;;;1.60;;
4742;SDS011;24293;48.154;7.748;2023-04-24T13:03:12;2.33;;;1.40;;
4742;SDS011;24293;48.154;7.748;2023-04-24T13:05:39;4.13;;;1.70;;
4742;SDS011;24293;48.154;7.748;2023-04-24T13:08:05;2.10;;;1.37;;
4742;SDS011;24293;48.154;7.748;2023-04-24T13:10:32;2.33;;;1.33;;
4742;SDS011;24293;48.154;7.748;2023-04-24T13:12:59;4.30;;;1.60;;
4742;SDS011;24293;48.154;7.748;2023-04-24T13:15:25;9.30;;;1.70;;
4742;SDS011;24293;48.154;7.748;2023-04-24T13:17:52;2.97;;;1.80;;
4742;SDS011;24293;48.154;7.748;2023-04-24T13:20:20;5.20;;;2.00;;
4742;SDS011;24293;48.154;7.748;2023-04-24T13:22:46;2.30;;;1.60;;
4742;SDS011;24293;48.154;7.748;2023-04-24T13:25:13;2.53;;;1.70;;
4742;SDS011;24293;48.154;7.748;2023-04-24T13:27:41;2.33;;;1.30;;
4742;SDS011;24293;48.154;7.748;2023-04-24T13:30:08;4.50;;;1.40;;
4742;SDS011;24293;48.154;7.748;2023-04-24T13:32:35;3.30;;;1.80;;
4742;SDS011;24293;48.154;7.748;2023-04-24T13:35:02;3.30;;;1.53;;
4742;SDS011;24293;48.154;7.748;2023-04-24T13:37:30;2.67;;;1.70;;
4742;SDS011;24293;48.154;7.748;2023-04-24T13:39:56;2.53;;;1.40;;
4742;SDS011;24293;48.154;7.748;2023-04-24T13:42:23;6.53;;;2.07;;
4742;SDS011;24293;48.154;7.748;2023-04-24T13:44:49;4.07;;;1.90;;
4742;SDS011;24293;48.154;7.748;2023-04-24T13:47:16;4.77;;;1.97;;
4742;SDS011;24293;48.154;7.748;2023-04-24T13:49:42;3.90;;;1.70;;
4742;SDS011;24293;48.154;7.748;2023-04-24T13:52:09;3.80;;;2.40;;
4742;SDS011;24293;48.154;7.748;2023-04-24T13:54:37;4.00;;;2.43;;
4742;SDS011;24293;48.154;7.748;2023-04-24T13:57:03;3.23;;;2.03;;
4742;SDS011;24293;48.154;7.748;2023-04-24T13:59:30;5.33;;;1.90;;
4742;SDS011;24293;48.154;7.748;2023-04-24T14:01:56;4.17;;;1.90;;
4742;SDS011;24293;48.154;7.748;2023-04-24T14:04:23;7.73;;;2.17;;
4742;SDS011;24293;48.154;7.748;2023-04-24T14:06:49;8.00;;;1.90;;
4742;SDS011;24293;48.154;7.748;2023-04-24T14:09:16;5.60;;;2.00;;
4742;SDS011;24293;48.154;7.748;2023-04-24T14:11:43;4.20;;;1.70;;
4742;SDS011;24293;48.154;7.748;2023-04-24T14:14:10;3.20;;;1.67;;
4742;SDS011;24293;48.154;7.748;2023-04-24T14:16:36;3.00;;;1.53;;
4742;SDS011;24293;48.154;7.748;2023-04-24T14:19:03;5.50;;;1.50;;
4742;SDS011;24293;48.154;7.748;2023-04-24T14:21:30;4.30;;;2.03;;
4742;SDS011;24293;48.154;7.748;2023-04-24T14:23:57;3.20;;;1.27;;
4742;SDS011;24293;48.154;7.748;2023-04-24T14:26:23;4.20;;;1.63;;
4742;SDS011;24293;48.154;7.748;2023-04-24T14:28:51;3.73;;;1.53;;
4742;SDS011;24293;48.154;7.748;2023-04-24T14:31:20;3.33;;;1.60;;
4742;SDS011;24293;48.154;7.748;2023-04-24T14:33:46;3.20;;;1.80;;
4742;SDS011;24293;48.154;7.748;2023-04-24T14:36:12;3.30;;;1.43;;
4742;SDS011;24293;48.154;7.748;2023-04-24T14:38:39;3.03;;;1.43;;
4742;SDS011;24293;48.154;7.748;2023-04-24T14:41:05;4.17;;;1.53;;
4742;SDS011;24293;48.154;7.748;2023-04-24T14:43:34;3.30;;;1.40;;
4742;SDS011;24293;48.154;7.748;2023-04-24T14:46:02;2.60;;;1.30;;
4742;SDS011;24293;48.154;7.748;2023-04-24T14:48:28;2.43;;;1.40;;
4742;SDS011;24293;48.154;7.748;2023-04-24T14:50:55;2.60;;;1.60;;
4742;SDS011;24293;48.154;7.748;2023-04-24T14:53:21;4.83;;;2.10;;
4742;SDS011;24293;48.154;7.748;2023-04-24T14:55:48;3.40;;;1.70;;
4742;SDS011;24293;48.154;7.748;2023-04-24T14:58:14;5.50;;;1.80;;
4742;SDS011;24293;48.154;7.748;2023-04-24T15:00:40;3.83;;;1.27;;